メインページ
METAR-TAF:

METAR-TAF

空港 :

ウラジオストク, ロシア

ウラジオストク国際空港

緯度: 43-07N, 経度: 131-56E, 海抜: 184m

現時点の気象観測

当レポートは15分前の01:00(UTC)に作成
南西の風 6kt
気温 12°C
湿度 71%
気圧 1010 hPa
視程10km以上
高度4000ftの千切れ雲あり, 積乱雲.

METAR: UHWW 230100Z 23003MPS 9999 BKN040CB 12/07 Q1010 R25L/29//60 NOSIG RMK QFE756

時間: 11:15 (01:15 UTC)

予報

当レポートは2時間20分前の22:55(UTC)に作成
予報は23日の 00時(UTC)から 23日の 24時(UTC)まで有効
南/南西の風 6kt
視程10km以上
高度2000ftの千切れ雲あり, 積乱雲.
23日の 00時(UTC)から 23日の 12時(UTC)まで一時的に
視程: 5000m
弱いにわか雨

TAF: UHWW 222255Z 2300/2324 20003MPS 9999 BKN020CB TEMPO 2300/2312 5000 -SHRA

4,000以上の空港の気象観測と天気予報(METAR報とTAF報)

利用可能な観測所は地図上に黄色い丸と赤い丸で示す。

丸の上にカーソルを重ねると観測所名を参照できる。

次にクリックすると気象観測と天気予報を参照できる。

マップの切り替え:黒色「×」印の緑ボタンをクリックして拡大、「-」印の緑ボタンをクリックして縮小、緑色の三角印をクリックして隣りの地図に切り替え


METAR-TAF: